Time;durP1;ratioP1;P1;durP2;ratioP2;P2;SDS_P1;SDS_P2;PMS_P1;PMS_P2;Temp;Humidity;BMP_temperature;BMP_pressure;BME280_temperature;BME280_humidity;BME280_pressure;Samples;Min_cycle;Max_cycle;Signal;HPM_P1;HPM_P2
2022/12/08 00:00:35;;;;;;;23.88;15.52;;;5.30;99.90;;;;;;5045016;28;20251;-77
2022/12/08 00:03:21;;;;;;;23.50;14.63;;;5.20;99.90;;;;;;5058794;28;20205;-77
2022/12/08 00:09:22;;;;;;;25.52;15.52;;;5.10;99.90;;;;;;5056562;28;20254;-74
2022/12/08 00:12:09;;;;;;;21.67;14.40;;;5.20;99.90;;;;;;5054763;28;20565;-77
2022/12/08 00:14:56;;;;;;;21.25;14.63;;;5.20;99.90;;;;;;5052857;28;20674;-77
2022/12/08 00:17:42;;;;;;;26.08;15.85;;;5.20;99.90;;;;;;5054043;28;20230;-77
2022/12/08 00:20:27;;;;;;;20.90;14.38;;;5.30;99.90;;;;;;5045784;28;20765;-77
2022/12/08 00:23:13;;;;;;;25.50;15.35;;;5.10;99.90;;;;;;5054480;28;20320;-76
2022/12/08 00:26:03;;;;;;;21.60;15.30;;;5.10;99.90;;;;;;5063768;28;20747;-75
2022/12/08 00:28:48;;;;;;;23.17;14.38;;;4.80;99.90;;;;;;5057888;28;20205;-73
2022/12/08 00:31:35;;;;;;;22.05;14.95;;;4.70;99.90;;;;;;5054627;28;20228;-77
2022/12/08 00:34:21;;;;;;;23.17;14.80;;;4.60;99.90;;;;;;5063274;28;20291;-76
2022/12/08 00:37:06;;;;;;;23.88;16.05;;;4.60;99.90;;;;;;5053483;28;20728;-77
2022/12/08 00:39:56;;;;;;;24.40;14.55;;;4.60;99.90;;;;;;5055222;28;20681;-77
2022/12/08 00:42:41;;;;;;;18.85;13.77;;;4.70;99.90;;;;;;5062199;28;20216;-77
2022/12/08 00:45:27;;;;;;;23.50;15.63;;;4.70;99.90;;;;;;5056920;28;20263;-77
2022/12/08 00:48:14;;;;;;;21.10;14.85;;;4.70;99.90;;;;;;5057634;28;20532;-77
2022/12/08 00:50:59;;;;;;;20.65;14.98;;;4.60;99.90;;;;;;5044617;28;20665;-77
2022/12/08 00:53:44;;;;;;;21.35;15.13;;;4.80;99.90;;;;;;5056634;28;20228;-72
2022/12/08 00:56:31;;;;;;;23.88;14.52;;;4.80;99.90;;;;;;5060375;28;20225;-76
2022/12/08 00:59:16;;;;;;;22.58;15.23;;;4.80;99.90;;;;;;5054933;28;20320;-77
2022/12/08 01:02:02;;;;;;;20.02;14.65;;;4.90;99.90;;;;;;5057378;28;20327;-76
2022/12/08 01:04:48;;;;;;;19.80;14.00;;;4.80;99.90;;;;;;5050290;28;20213;-76
2022/12/08 01:07:34;;;;;;;25.83;14.68;;;4.70;99.90;;;;;;5051234;28;20199;-76
2022/12/08 01:10:19;;;;;;;22.23;15.32;;;4.70;99.90;;;;;;5056055;28;20574;-77
2022/12/08 01:13:05;;;;;;;21.23;14.73;;;4.80;99.90;;;;;;5061623;28;20201;-77
2022/12/08 01:15:51;;;;;;;16.77;12.90;;;4.90;99.90;;;;;;5057375;28;20236;-77
2022/12/08 01:18:37;;;;;;;19.88;13.80;;;4.90;99.90;;;;;;5046984;28;20634;-77
2022/12/08 01:21:24;;;;;;;20.90;14.80;;;4.90;99.90;;;;;;5057459;28;20705;-77
2022/12/08 01:24:12;;;;;;;21.17;13.90;;;4.80;99.90;;;;;;5058352;28;20201;-75
2022/12/08 01:26:58;;;;;;;20.67;14.52;;;4.80;99.90;;;;;;5062755;28;20228;-76
2022/12/08 01:29:43;;;;;;;20.40;14.13;;;4.90;99.90;;;;;;5042647;28;20254;-76
2022/12/08 01:32:29;;;;;;;18.25;13.32;;;5.00;99.90;;;;;;5049695;28;20208;-76
2022/12/08 01:35:14;;;;;;;24.83;13.00;;;5.00;99.90;;;;;;5062443;28;20710;-76
2022/12/08 01:38:01;;;;;;;21.02;14.40;;;4.90;99.90;;;;;;5058033;28;20224;-76
2022/12/08 01:40:47;;;;;;;20.70;13.40;;;4.90;99.90;;;;;;5052846;28;20751;-76
2022/12/08 01:43:56;;;;;;;21.52;14.60;;;4.80;99.90;;;;;;5062020;28;20199;-76
2022/12/08 01:46:44;;;;;;;25.23;13.90;;;4.80;99.90;;;;;;5054246;28;20268;-77
2022/12/08 01:49:33;;;;;;;20.17;13.55;;;4.70;99.90;;;;;;5045952;28;20223;-76
2022/12/08 01:52:23;;;;;;;20.33;14.00;;;4.70;99.90;;;;;;5048848;28;20576;-76
2022/12/08 01:55:16;;;;;;;21.48;12.60;;;4.80;99.90;;;;;;5057843;28;20248;-77
2022/12/08 01:58:08;;;;;;;18.73;12.85;;;4.80;99.90;;;;;;5059180;28;20244;-75
2022/12/08 02:00:54;;;;;;;16.05;11.65;;;4.90;99.90;;;;;;5054240;28;20213;-76
2022/12/08 02:03:43;;;;;;;20.80;13.35;;;4.90;99.90;;;;;;5056698;28;20708;-77
2022/12/08 02:06:33;;;;;;;20.48;12.93;;;4.70;99.90;;;;;;5048792;28;20344;-77
2022/12/08 02:09:19;;;;;;;21.00;12.35;;;4.70;99.90;;;;;;5047567;28;20705;-77
2022/12/08 02:12:07;;;;;;;18.75;12.77;;;4.80;99.90;;;;;;5062373;28;20212;-77
2022/12/08 02:14:53;;;;;;;16.88;11.82;;;4.70;99.90;;;;;;5050628;28;20213;-77
2022/12/08 02:17:54;;;;;;;16.02;11.90;;;4.80;99.90;;;;;;5045865;28;20238;-75
2022/12/08 02:20:52;;;;;;;18.20;12.23;;;4.80;99.90;;;;;;5053037;28;20208;-75
2022/12/08 02:23:51;;;;;;;20.17;12.82;;;4.90;99.90;;;;;;5051028;28;20200;-75
2022/12/08 02:27:16;;;;;;;22.83;13.32;;;4.80;99.90;;;;;;5053429;28;20602;-75
2022/12/08 02:30:11;;;;;;;17.38;11.90;;;4.80;99.90;;;;;;5061417;28;20274;-75
2022/12/08 02:33:23;;;;;;;15.80;11.55;;;4.80;99.90;;;;;;5053462;28;20283;-75
2022/12/08 02:36:17;;;;;;;16.67;10.93;;;4.80;99.90;;;;;;5047393;28;20221;-75
2022/12/08 02:39:11;;;;;;;19.23;12.55;;;4.90;99.90;;;;;;5048433;28;20324;-75
2022/12/08 02:42:06;;;;;;;19.73;13.07;;;4.90;99.90;;;;;;5062431;28;20208;-75
2022/12/08 02:44:55;;;;;;;16.77;11.50;;;4.80;99.90;;;;;;5056804;28;20590;-75
2022/12/08 02:47:41;;;;;;;18.98;12.27;;;4.80;99.90;;;;;;5049724;28;20319;-75
2022/12/08 02:50:27;;;;;;;19.30;11.75;;;4.80;99.90;;;;;;5049322;28;20215;-75
2022/12/08 02:53:14;;;;;;;17.08;11.30;;;4.70;99.90;;;;;;5069075;28;20626;-75
2022/12/08 02:56:08;;;;;;;16.35;12.00;;;4.60;99.90;;;;;;5062340;28;20231;-75
2022/12/08 02:59:20;;;;;;;25.15;12.13;;;4.70;99.90;;;;;;5045631;28;20355;-75
2022/12/08 03:02:20;;;;;;;14.43;10.65;;;4.70;99.90;;;;;;5051049;28;20213;-75
2022/12/08 03:05:11;;;;;;;15.90;11.77;;;4.80;99.90;;;;;;5052170;28;20293;-75
2022/12/08 03:08:02;;;;;;;18.27;11.20;;;4.80;99.90;;;;;;5054025;28;20272;-75
2022/12/08 03:10:56;;;;;;;18.17;12.07;;;4.70;99.90;;;;;;5048294;28;20201;-75
2022/12/08 03:13:44;;;;;;;15.73;11.40;;;4.50;99.90;;;;;;5059662;28;20211;-75
2022/12/08 03:16:32;;;;;;;20.75;12.02;;;4.50;99.90;;;;;;5055175;28;20284;-75
2022/12/08 03:19:20;;;;;;;17.58;12.85;;;4.60;99.90;;;;;;5054746;28;20228;-75
2022/12/08 03:22:07;;;;;;;21.35;12.95;;;4.50;99.90;;;;;;5055190;28;20202;-75
2022/12/08 03:24:53;;;;;;;17.38;11.55;;;4.60;99.90;;;;;;5060791;28;20335;-75
2022/12/08 03:27:41;;;;;;;22.27;12.65;;;4.60;99.90;;;;;;5053113;28;20220;-75
2022/12/08 03:30:30;;;;;;;20.67;13.40;;;4.60;99.90;;;;;;5052871;28;20307;-75
2022/12/08 03:33:22;;;;;;;18.08;13.00;;;4.60;99.90;;;;;;5053351;28;20683;-75
2022/12/08 03:36:11;;;;;;;17.85;12.70;;;4.60;99.90;;;;;;5059319;28;20227;-75
2022/12/08 03:38:57;;;;;;;23.05;12.75;;;4.70;99.90;;;;;;5057505;28;20221;-75
2022/12/08 03:41:42;;;;;;;14.80;11.32;;;4.60;99.90;;;;;;5062081;28;20208;-75
2022/12/08 03:44:29;;;;;;;16.00;11.60;;;4.60;99.90;;;;;;5049016;28;20331;-75
2022/12/08 03:47:15;;;;;;;19.42;12.25;;;4.70;99.90;;;;;;5043040;28;20213;-75
2022/12/08 03:50:00;;;;;;;18.02;12.68;;;4.70;99.90;;;;;;5055381;28;20209;-74
2022/12/08 03:52:46;;;;;;;18.58;12.45;;;4.80;99.90;;;;;;5061846;28;20279;-75
2022/12/08 03:55:32;;;;;;;17.63;12.13;;;4.70;99.90;;;;;;5050165;28;20736;-75
2022/12/08 03:58:17;;;;;;;20.33;12.60;;;4.80;99.90;;;;;;5055211;28;20295;-75
2022/12/08 04:01:04;;;;;;;15.35;11.20;;;4.80;99.90;;;;;;5061715;28;20208;-75
2022/12/08 04:03:50;;;;;;;18.13;12.10;;;4.70;99.90;;;;;;5063400;28;20204;-75
2022/12/08 04:06:36;;;;;;;19.10;11.15;;;4.70;99.90;;;;;;5049799;28;20229;-75
2022/12/08 04:09:21;;;;;;;18.33;12.85;;;4.60;99.90;;;;;;5063266;28;20340;-75
2022/12/08 04:12:07;;;;;;;19.65;12.13;;;4.50;99.90;;;;;;5063941;28;20208;-75
2022/12/08 04:14:52;;;;;;;25.58;12.70;;;4.60;99.90;;;;;;5052692;28;20212;-75
2022/12/08 04:17:39;;;;;;;18.35;11.50;;;4.60;99.90;;;;;;5042467;28;20339;-75
2022/12/08 04:20:25;;;;;;;19.75;12.57;;;4.60;99.90;;;;;;5061649;28;20213;-75
2022/12/08 04:23:12;;;;;;;20.83;11.75;;;4.70;99.90;;;;;;5059082;28;20324;-75
2022/12/08 04:25:57;;;;;;;18.70;12.35;;;4.60;99.90;;;;;;5051065;28;20228;-75
2022/12/08 04:28:43;;;;;;;18.48;12.02;;;4.50;99.90;;;;;;5052474;28;20274;-75
2022/12/08 04:31:28;;;;;;;18.88;12.13;;;4.50;99.90;;;;;;5045374;28;20685;-75
2022/12/08 04:34:15;;;;;;;21.15;12.10;;;4.50;99.90;;;;;;5058000;28;20662;-75
2022/12/08 04:37:01;;;;;;;16.80;12.50;;;4.60;99.90;;;;;;5057375;28;20271;-75
2022/12/08 04:39:46;;;;;;;17.65;11.57;;;4.70;99.90;;;;;;5050977;28;20276;-75
2022/12/08 04:42:32;;;;;;;16.23;10.45;;;4.80;99.90;;;;;;5060092;28;20195;-75
2022/12/08 04:45:18;;;;;;;18.48;12.10;;;4.90;99.90;;;;;;5049689;28;20229;-75
2022/12/08 04:48:03;;;;;;;15.20;11.65;;;4.90;99.90;;;;;;5052511;28;20216;-76
2022/12/08 04:50:50;;;;;;;14.85;9.98;;;4.90;99.90;;;;;;5060884;28;20199;-75
2022/12/08 04:53:36;;;;;;;21.55;11.65;;;4.90;99.90;;;;;;5058131;28;20275;-75
2022/12/08 04:56:21;;;;;;;17.02;10.63;;;4.70;99.90;;;;;;5056965;28;20231;-75
2022/12/08 04:59:07;;;;;;;18.05;11.43;;;4.70;99.90;;;;;;5054772;28;20220;-75
2022/12/08 05:01:52;;;;;;;16.48;10.80;;;4.50;99.90;;;;;;5043719;28;20220;-75
2022/12/08 05:04:38;;;;;;;15.48;11.10;;;4.50;99.90;;;;;;5053732;28;20204;-75
2022/12/08 05:07:25;;;;;;;15.75;11.30;;;4.60;99.90;;;;;;5051652;28;20200;-75
2022/12/08 05:10:10;;;;;;;14.82;10.95;;;4.70;99.90;;;;;;5059685;28;20201;-75
2022/12/08 05:12:56;;;;;;;19.40;11.70;;;4.80;99.90;;;;;;5062888;28;20616;-75
2022/12/08 05:15:41;;;;;;;20.42;12.13;;;4.70;99.90;;;;;;5045181;28;20275;-75
2022/12/08 05:18:27;;;;;;;16.08;11.10;;;4.70;99.90;;;;;;5061839;28;20326;-74
2022/12/08 05:21:12;;;;;;;17.70;11.20;;;4.60;99.90;;;;;;5064662;28;20204;-75
2022/12/08 05:23:59;;;;;;;20.02;11.52;;;4.60;99.90;;;;;;5059299;28;20213;-75
2022/12/08 05:26:45;;;;;;;14.45;11.00;;;4.60;99.90;;;;;;5053977;28;20358;-75
2022/12/08 05:29:30;;;;;;;14.32;10.63;;;4.70;99.90;;;;;;5054420;28;20258;-75
2022/12/08 05:32:16;;;;;;;17.80;11.32;;;4.70;99.90;;;;;;5058303;28;20600;-75
2022/12/08 05:35:02;;;;;;;14.80;11.10;;;4.80;99.90;;;;;;5051723;28;20201;-75
2022/12/08 05:37:47;;;;;;;16.05;10.35;;;4.90;99.90;;;;;;5056647;28;20205;-75
2022/12/08 05:40:34;;;;;;;14.63;11.35;;;4.90;99.90;;;;;;5052459;28;20224;-75
2022/12/08 05:43:20;;;;;;;18.10;11.63;;;4.90;99.90;;;;;;5057321;28;20208;-75
2022/12/08 05:46:06;;;;;;;17.08;12.10;;;4.80;99.90;;;;;;5050408;28;20236;-75
2022/12/08 05:48:52;;;;;;;20.98;12.35;;;4.70;99.90;;;;;;5066382;28;20216;-74
2022/12/08 05:51:38;;;;;;;21.55;10.90;;;4.70;99.90;;;;;;5056441;28;20201;-74
2022/12/08 05:54:23;;;;;;;19.10;12.00;;;4.70;99.90;;;;;;5062271;28;20335;-75
2022/12/08 05:57:10;;;;;;;15.30;10.25;;;4.90;99.90;;;;;;5048811;28;20351;-75
2022/12/08 05:59:58;;;;;;;17.58;11.18;;;4.80;99.90;;;;;;5061596;28;20232;-75
2022/12/08 06:02:43;;;;;;;14.77;9.48;;;4.90;99.90;;;;;;5056668;28;20633;-75
2022/12/08 06:05:29;;;;;;;15.18;10.60;;;4.90;99.90;;;;;;5043639;28;20228;-75
2022/12/08 06:08:15;;;;;;;17.95;11.65;;;4.80;99.90;;;;;;5059031;28;20212;-75
2022/12/08 06:11:00;;;;;;;12.00;10.00;;;4.60;99.90;;;;;;5047815;28;20247;-75
2022/12/08 06:13:48;;;;;;;15.40;8.82;;;4.60;99.90;;;;;;5054952;28;20336;-75
2022/12/08 06:16:33;;;;;;;15.18;9.85;;;4.50;99.90;;;;;;5056799;28;20728;-75
2022/12/08 06:19:19;;;;;;;17.08;11.40;;;4.50;99.90;;;;;;5059097;28;20244;-75
2022/12/08 06:22:04;;;;;;;14.57;9.50;;;4.40;99.90;;;;;;5061943;28;20204;-75
2022/12/08 06:24:50;;;;;;;17.38;10.00;;;4.30;99.90;;;;;;5050003;28;20724;-75
2022/12/08 06:27:35;;;;;;;14.88;9.95;;;4.30;99.90;;;;;;5063139;28;20211;-75
2022/12/08 06:30:22;;;;;;;16.15;10.63;;;4.30;99.90;;;;;;5056832;28;20204;-75
2022/12/08 06:33:08;;;;;;;14.98;10.77;;;4.20;99.90;;;;;;5061133;28;20207;-75
2022/12/08 06:35:53;;;;;;;17.85;11.00;;;4.30;99.90;;;;;;5040085;28;20267;-75
2022/12/08 06:38:39;;;;;;;12.82;9.98;;;4.30;99.90;;;;;;5053469;28;20259;-75
2022/12/08 06:41:25;;;;;;;16.52;10.85;;;4.40;99.90;;;;;;5056135;28;20211;-75
2022/12/08 06:44:11;;;;;;;18.10;11.50;;;4.40;99.90;;;;;;5056373;28;20584;-75
2022/12/08 06:46:58;;;;;;;21.63;11.02;;;4.30;99.90;;;;;;5059744;28;20266;-75
2022/12/08 06:49:43;;;;;;;17.33;11.13;;;4.40;99.90;;;;;;5063579;28;20274;-75
2022/12/08 06:52:29;;;;;;;17.52;11.18;;;4.30;99.90;;;;;;5058435;28;20208;-75
2022/12/08 06:55:15;;;;;;;20.08;13.25;;;4.20;99.90;;;;;;5052583;28;20697;-75
2022/12/08 06:58:00;;;;;;;22.83;11.90;;;4.20;99.90;;;;;;5066881;28;20736;-75
2022/12/08 07:00:46;;;;;;;22.30;12.63;;;4.10;99.90;;;;;;5050140;28;20263;-75
2022/12/08 07:03:32;;;;;;;22.25;13.88;;;4.00;99.90;;;;;;5052210;28;20698;-75
2022/12/08 07:06:22;;;;;;;18.23;11.90;;;4.00;99.90;;;;;;5050057;28;20228;-75
2022/12/08 07:09:08;;;;;;;23.95;13.45;;;4.00;99.90;;;;;;5042340;28;20196;-75
2022/12/08 07:11:53;;;;;;;17.30;10.73;;;4.00;99.90;;;;;;5051952;28;20607;-75
2022/12/08 07:14:39;;;;;;;18.50;12.40;;;4.10;99.90;;;;;;5038405;28;20204;-75
2022/12/08 07:17:25;;;;;;;20.45;11.88;;;4.10;99.90;;;;;;5059325;28;20200;-74
2022/12/08 07:20:13;;;;;;;18.77;12.07;;;4.00;99.90;;;;;;5048542;28;20232;-75
2022/12/08 07:22:58;;;;;;;18.60;13.73;;;4.10;99.90;;;;;;5048122;28;20205;-76
2022/12/08 07:25:44;;;;;;;27.70;13.48;;;4.20;99.90;;;;;;5049307;28;20240;-75
2022/12/08 07:28:31;;;;;;;20.27;12.93;;;4.30;99.90;;;;;;5061424;28;20196;-75
2022/12/08 07:31:19;;;;;;;22.50;13.38;;;4.40;99.90;;;;;;5053717;28;20564;-75
2022/12/08 07:34:04;;;;;;;16.33;11.50;;;4.50;99.90;;;;;;5057610;28;20259;-75
2022/12/08 07:36:51;;;;;;;17.67;11.90;;;4.50;99.90;;;;;;5054998;28;20270;-75
2022/12/08 07:39:37;;;;;;;15.88;10.68;;;4.60;99.90;;;;;;5044405;28;20314;-75
2022/12/08 07:42:23;;;;;;;15.85;11.25;;;4.60;99.90;;;;;;5047876;28;20213;-75
2022/12/08 07:45:09;;;;;;;17.77;12.50;;;4.60;99.90;;;;;;5043234;28;20224;-73
2022/12/08 07:47:54;;;;;;;15.30;11.15;;;4.70;99.90;;;;;;5052557;28;20784;-73
2022/12/08 07:50:40;;;;;;;18.05;11.20;;;4.80;99.90;;;;;;5043911;28;20213;-73
2022/12/08 07:53:27;;;;;;;19.95;11.95;;;4.80;99.90;;;;;;5044670;28;20327;-74
2022/12/08 07:56:14;;;;;;;16.73;11.23;;;4.80;99.90;;;;;;5058344;28;20241;-74
2022/12/08 07:59:01;;;;;;;14.50;10.13;;;4.70;99.90;;;;;;5047947;28;20279;-74
2022/12/08 08:01:47;;;;;;;18.58;11.77;;;4.70;99.90;;;;;;5052518;28;20310;-74
2022/12/08 08:04:33;;;;;;;19.23;11.40;;;4.70;99.90;;;;;;5048756;28;20268;-74
2022/12/08 08:07:18;;;;;;;22.30;12.93;;;4.60;99.90;;;;;;5058719;28;20272;-74
2022/12/08 08:10:06;;;;;;;17.00;11.25;;;4.60;99.90;;;;;;5057390;28;20204;-74
2022/12/08 08:12:52;;;;;;;16.67;10.95;;;4.60;99.90;;;;;;5039023;28;20221;-75
2022/12/08 08:15:37;;;;;;;17.13;11.38;;;4.70;99.90;;;;;;5067310;22;20232;-77
2022/12/08 08:18:23;;;;;;;18.15;11.30;;;4.70;99.90;;;;;;5049118;28;20216;-77
2022/12/08 08:21:09;;;;;;;16.13;11.15;;;4.70;99.90;;;;;;5057166;28;20228;-76
2022/12/08 08:23:55;;;;;;;17.73;10.20;;;4.70;99.90;;;;;;5050809;28;20207;-77
2022/12/08 08:26:42;;;;;;;18.10;12.40;;;4.60;99.90;;;;;;5058818;28;20791;-77
2022/12/08 08:29:27;;;;;;;21.65;11.00;;;4.50;99.90;;;;;;5052109;28;20200;-77
2022/12/08 08:32:13;;;;;;;18.17;10.75;;;4.50;99.90;;;;;;5051710;28;20204;-77
2022/12/08 08:34:59;;;;;;;15.43;10.30;;;4.60;99.90;;;;;;5055140;28;20306;-77
2022/12/08 08:37:44;;;;;;;16.13;10.75;;;4.70;99.90;;;;;;5043759;28;20225;-78
2022/12/08 08:40:30;;;;;;;14.25;10.27;;;4.70;99.90;;;;;;5053819;28;20212;-77
2022/12/08 08:43:28;;;;;;;17.90;11.93;;;4.80;99.90;;;;;;5050629;28;20240;-77
2022/12/08 08:46:14;;;;;;;19.30;10.90;;;4.80;99.90;;;;;;5047857;28;21146;-77
2022/12/08 08:49:00;;;;;;;17.55;10.73;;;4.90;99.90;;;;;;5048055;28;20204;-77
2022/12/08 08:51:45;;;;;;;19.70;10.20;;;4.80;99.90;;;;;;5035517;28;20317;-77
2022/12/08 08:54:31;;;;;;;15.88;10.02;;;4.80;99.90;;;;;;5033167;28;20245;-77
2022/12/08 08:57:17;;;;;;;16.42;9.82;;;4.80;99.90;;;;;;5041536;28;20225;-76
2022/12/08 09:00:05;;;;;;;13.77;10.50;;;4.80;99.90;;;;;;5038209;28;20348;-77
2022/12/08 09:02:51;;;;;;;16.00;9.77;;;4.90;99.90;;;;;;5059526;28;20208;-77
2022/12/08 09:05:38;;;;;;;13.02;9.23;;;4.90;99.90;;;;;;5039651;28;20205;-78
2022/12/08 09:08:23;;;;;;;14.55;9.57;;;4.80;99.90;;;;;;5054923;28;20232;-78
2022/12/08 09:11:10;;;;;;;19.02;11.35;;;4.90;99.90;;;;;;5032136;28;20669;-78
2022/12/08 09:13:56;;;;;;;16.10;10.32;;;4.90;99.90;;;;;;5051348;28;20279;-77
2022/12/08 09:16:43;;;;;;;17.13;11.07;;;5.00;99.90;;;;;;5052361;28;20233;-77
2022/12/08 09:19:28;;;;;;;16.08;10.48;;;5.00;99.90;;;;;;5052836;28;20189;-77
2022/12/08 09:22:15;;;;;;;15.32;9.77;;;5.00;99.90;;;;;;5040762;28;20334;-77
2022/12/08 09:25:01;;;;;;;15.10;10.00;;;5.00;99.90;;;;;;5053326;28;20236;-77
2022/12/08 09:27:46;;;;;;;20.10;10.90;;;4.90;99.90;;;;;;5052067;28;20225;-77
2022/12/08 09:30:32;;;;;;;19.10;10.80;;;5.00;99.90;;;;;;5052805;28;20717;-77
2022/12/08 09:33:19;;;;;;;14.57;9.95;;;4.90;99.90;;;;;;5052278;28;20203;-77
2022/12/08 09:36:05;;;;;;;19.20;10.73;;;4.90;99.90;;;;;;5044184;28;20233;-77
2022/12/08 09:38:52;;;;;;;16.95;11.10;;;4.80;99.90;;;;;;5043025;28;20192;-77
2022/12/08 09:41:44;;;;;;;16.50;11.35;;;4.80;99.90;;;;;;5052257;28;20621;-77
2022/12/08 09:44:43;;;;;;;18.98;11.38;;;4.70;99.90;;;;;;5048356;28;20656;-77
2022/12/08 09:47:32;;;;;;;16.95;11.40;;;4.70;99.90;;;;;;5050395;28;20221;-77
2022/12/08 09:50:29;;;;;;;15.80;10.93;;;4.80;99.90;;;;;;5050761;28;20205;-77
2022/12/08 09:53:19;;;;;;;19.02;11.15;;;4.80;99.90;;;;;;5051768;28;20301;-77
2022/12/08 09:56:09;;;;;;;20.25;10.07;;;4.80;99.90;;;;;;5055344;28;20236;-77
2022/12/08 09:58:58;;;;;;;15.43;10.88;;;4.80;99.90;;;;;;5057628;28;20670;-77
2022/12/08 10:01:44;;;;;;;16.88;9.93;;;4.80;99.90;;;;;;5043378;28;20216;-77
2022/12/08 10:04:32;;;;;;;18.02;10.45;;;4.90;99.90;;;;;;5041580;28;20205;-77
2022/12/08 10:07:25;;;;;;;20.13;10.55;;;5.10;99.90;;;;;;5034108;28;20807;-77
2022/12/08 10:10:22;;;;;;;15.98;10.73;;;5.00;99.90;;;;;;5039200;28;20200;-77
2022/12/08 10:13:16;;;;;;;21.55;11.38;;;5.10;99.90;;;;;;5047538;28;20204;-77
2022/12/08 10:16:14;;;;;;;18.23;11.48;;;5.00;99.90;;;;;;5044616;28;20303;-77
2022/12/08 10:19:07;;;;;;;21.15;11.75;;;5.00;99.90;;;;;;5040874;28;20257;-77
2022/12/08 10:21:54;;;;;;;16.80;11.40;;;5.00;99.90;;;;;;5040296;28;20208;-77
2022/12/08 10:24:48;;;;;;;18.45;11.48;;;5.00;99.90;;;;;;5043152;28;20198;-77
2022/12/08 10:27:35;;;;;;;22.25;11.80;;;5.00;99.90;;;;;;5040959;28;20239;-77
2022/12/08 10:30:22;;;;;;;18.00;11.30;;;5.30;99.90;;;;;;5047166;28;20276;-77
2022/12/08 10:33:14;;;;;;;19.60;10.98;;;5.40;99.90;;;;;;5043159;28;20348;-77
2022/12/08 10:36:01;;;;;;;17.83;11.90;;;5.40;99.90;;;;;;5043157;28;20221;-77
2022/12/08 10:38:47;;;;;;;17.17;11.43;;;5.50;99.90;;;;;;5042279;28;20329;-77
2022/12/08 10:41:34;;;;;;;18.67;11.57;;;5.60;99.90;;;;;;5041674;28;20232;-77
2022/12/08 10:44:20;;;;;;;33.75;16.13;;;5.60;99.90;;;;;;5040473;28;20197;-77
2022/12/08 10:47:12;;;;;;;28.95;13.20;;;5.70;99.90;;;;;;5034853;28;20229;-77
2022/12/08 10:50:17;;;;;;;24.13;14.20;;;5.80;99.90;;;;;;5047069;28;20208;-77
2022/12/08 10:53:14;;;;;;;19.58;11.43;;;6.00;99.90;;;;;;5046999;28;20673;-77
2022/12/08 10:56:14;;;;;;;17.48;11.13;;;6.10;99.90;;;;;;5045821;28;20225;-77
2022/12/08 10:59:13;;;;;;;19.33;11.75;;;6.00;99.90;;;;;;5049390;28;20201;-77
2022/12/08 11:02:00;;;;;;;17.42;10.55;;;6.20;99.90;;;;;;5035109;28;20252;-77
2022/12/08 11:04:47;;;;;;;18.60;11.52;;;6.30;99.90;;;;;;5039216;28;20208;-77
2022/12/08 11:07:32;;;;;;;17.13;9.85;;;6.30;99.90;;;;;;5047789;28;20279;-77
2022/12/08 11:10:20;;;;;;;20.35;12.25;;;6.30;99.90;;;;;;5045162;28;20263;-77
2022/12/08 11:13:13;;;;;;;18.83;12.18;;;6.10;99.90;;;;;;5034833;28;20196;-77
2022/12/08 11:15:59;;;;;;;17.88;11.45;;;6.10;99.90;;;;;;5049429;28;20359;-77
2022/12/08 11:18:48;;;;;;;18.33;10.57;;;6.20;99.90;;;;;;5048967;28;20196;-77
2022/12/08 11:21:37;;;;;;;27.73;12.00;;;6.10;99.90;;;;;;5038183;28;20213;-77
2022/12/08 11:24:24;;;;;;;19.55;12.15;;;6.00;99.90;;;;;;5043360;28;20192;-76
2022/12/08 11:27:10;;;;;;;21.30;12.05;;;5.90;99.90;;;;;;5054488;28;20228;-77
2022/12/08 11:29:56;;;;;;;20.50;11.90;;;5.70;99.90;;;;;;5052764;28;20698;-77
2022/12/08 11:32:45;;;;;;;18.90;12.27;;;5.70;99.90;;;;;;5046076;28;20439;-77
2022/12/08 11:35:34;;;;;;;20.02;10.68;;;5.60;99.90;;;;;;5051313;28;20335;-77
2022/12/08 11:38:22;;;;;;;20.20;12.82;;;5.60;99.90;;;;;;5050988;28;20706;-77
2022/12/08 11:41:12;;;;;;;21.70;12.77;;;5.60;99.90;;;;;;5053614;28;20209;-77
2022/12/08 11:44:05;;;;;;;21.45;12.90;;;5.70;99.90;;;;;;5049223;28;20204;-77
2022/12/08 11:46:55;;;;;;;21.95;12.68;;;5.80;99.90;;;;;;5040881;28;20225;-78
2022/12/08 11:49:44;;;;;;;18.25;12.32;;;5.90;99.90;;;;;;5036088;28;20213;-77
2022/12/08 11:52:33;;;;;;;18.35;11.90;;;6.00;99.90;;;;;;5050857;28;20205;-77
2022/12/08 11:55:30;;;;;;;33.72;13.05;;;6.00;99.90;;;;;;5054044;28;20516;-77
2022/12/08 11:58:20;;;;;;;17.38;11.70;;;5.90;99.90;;;;;;5053179;28;20205;-77
2022/12/08 12:01:05;;;;;;;18.23;11.43;;;6.00;99.90;;;;;;5054328;28;20294;-77
2022/12/08 12:03:59;;;;;;;16.60;11.00;;;6.00;99.90;;;;;;5049370;28;20564;-77
2022/12/08 12:07:15;;;;;;;16.15;10.80;;;6.00;99.90;;;;;;5048319;28;20776;-77
2022/12/08 12:10:22;;;;;;;18.17;10.73;;;6.00;99.90;;;;;;5053522;28;20200;-77
2022/12/08 12:13:17;;;;;;;20.55;12.35;;;6.00;99.90;;;;;;5053302;28;20618;-77
2022/12/08 12:16:31;;;;;;;18.02;11.63;;;6.00;99.90;;;;;;5034412;28;20225;-77
2022/12/08 12:19:19;;;;;;;20.52;13.20;;;6.00;99.90;;;;;;5031062;28;20209;-77
2022/12/08 12:22:15;;;;;;;18.58;11.60;;;5.90;99.90;;;;;;5056628;28;20775;-77
2022/12/08 12:25:02;;;;;;;18.58;11.77;;;5.90;99.90;;;;;;5054618;28;20200;-77
2022/12/08 12:27:49;;;;;;;17.92;11.77;;;5.90;99.90;;;;;;5051989;28;20220;-77
2022/12/08 12:30:53;;;;;;;15.88;10.70;;;5.90;99.90;;;;;;5056287;28;20709;-77
2022/12/08 12:33:39;;;;;;;20.20;12.30;;;5.90;99.90;;;;;;5054481;28;20192;-77
2022/12/08 12:36:25;;;;;;;19.10;11.95;;;6.00;99.90;;;;;;5051649;28;20310;-77
2022/12/08 12:39:14;;;;;;;18.33;11.63;;;5.90;99.90;;;;;;5048543;28;20204;-78
2022/12/08 12:42:01;;;;;;;20.23;11.25;;;5.70;99.90;;;;;;5049872;28;20592;-78
2022/12/08 12:44:46;;;;;;;17.05;11.32;;;5.70;99.90;;;;;;5056065;28;20200;-77
2022/12/08 12:47:48;;;;;;;22.90;11.45;;;5.70;99.90;;;;;;5053588;28;20300;-77
2022/12/08 12:50:44;;;;;;;19.88;11.80;;;5.70;99.90;;;;;;5033383;28;20228;-78
2022/12/08 12:53:50;;;;;;;17.15;10.40;;;5.70;99.90;;;;;;5040954;28;20602;-77
2022/12/08 12:56:54;;;;;;;24.05;11.48;;;5.80;99.90;;;;;;5037413;28;20270;-78
2022/12/08 12:59:45;;;;;;;16.48;11.32;;;5.80;99.90;;;;;;5053677;28;20670;-77
2022/12/08 13:02:32;;;;;;;23.05;11.05;;;5.80;99.90;;;;;;5052525;28;20829;-77
2022/12/08 13:05:21;;;;;;;13.43;9.30;;;5.80;99.90;;;;;;5053204;28;20823;-78
2022/12/08 13:08:16;;;;;;;18.55;10.10;;;5.90;99.90;;;;;;5058289;28;20204;-77
2022/12/08 13:11:04;;;;;;;12.68;8.52;;;5.90;99.90;;;;;;5056904;28;20268;-78
2022/12/08 13:13:58;;;;;;;14.95;9.50;;;5.90;99.90;;;;;;5052574;28;20695;-78
2022/12/08 13:16:44;;;;;;;13.75;8.32;;;6.00;99.90;;;;;;5052842;28;20229;-78
2022/12/08 13:19:32;;;;;;;17.50;9.75;;;6.00;99.90;;;;;;5052582;28;20204;-77
2022/12/08 13:22:50;;;;;;;17.92;10.25;;;5.90;99.90;;;;;;5052640;28;20741;-77
2022/12/08 13:25:51;;;;;;;13.68;8.75;;;5.80;99.90;;;;;;5052289;28;20267;-77
2022/12/08 13:29:18;;;;;;;13.75;9.63;;;5.90;99.90;;;;;;5045585;28;20566;-78
2022/12/08 13:32:27;;;;;;;11.82;9.60;;;6.00;99.90;;;;;;5014843;28;20882;-78
2022/12/08 13:35:13;;;;;;;12.55;8.68;;;6.10;99.90;;;;;;5042047;28;20196;-77
2022/12/08 13:38:01;;;;;;;15.27;10.30;;;6.10;99.90;;;;;;5058025;28;20290;-78
2022/12/08 13:40:47;;;;;;;15.10;10.00;;;6.10;99.90;;;;;;5057343;28;20208;-77
2022/12/08 13:43:41;;;;;;;17.65;9.57;;;6.10;99.90;;;;;;5044185;28;20299;-77
2022/12/08 13:46:34;;;;;;;20.40;11.38;;;6.10;99.90;;;;;;5057321;28;20239;-78
2022/12/08 13:49:27;;;;;;;14.43;9.60;;;6.10;99.90;;;;;;5039634;28;20272;-78
2022/12/08 13:52:19;;;;;;;21.42;9.63;;;6.10;99.90;;;;;;5044784;28;20200;-76
2022/12/08 13:55:07;;;;;;;15.25;10.35;;;6.10;99.90;;;;;;5040613;28;20205;-78
2022/12/08 13:57:56;;;;;;;16.55;11.15;;;6.10;99.90;;;;;;5043433;28;20267;-79
2022/12/08 14:00:42;;;;;;;13.10;9.40;;;6.10;99.90;;;;;;5062177;28;20204;-78
2022/12/08 14:03:27;;;;;;;13.45;8.75;;;6.20;99.90;;;;;;5052544;28;20205;-79
2022/12/08 14:06:17;;;;;;;15.90;9.77;;;6.20;99.90;;;;;;5052451;28;20432;-79
2022/12/08 14:09:07;;;;;;;16.00;10.25;;;6.10;99.90;;;;;;5053493;28;20185;-78
2022/12/08 14:11:56;;;;;;;40.67;10.73;;;6.10;99.90;;;;;;5038113;28;20201;-78
2022/12/08 14:14:45;;;;;;;13.80;9.82;;;6.10;99.90;;;;;;5061796;28;20213;-79
2022/12/08 14:17:30;;;;;;;17.65;10.90;;;6.00;99.90;;;;;;5096910;22;20304;-76
2022/12/08 14:20:22;;;;;;;18.40;10.48;;;6.00;99.90;;;;;;5098261;28;20281;-74
2022/12/08 14:23:09;;;;;;;14.00;9.55;;;6.00;99.90;;;;;;5090953;28;20285;-74
2022/12/08 14:25:55;;;;;;;13.35;9.45;;;6.00;99.90;;;;;;5101606;28;20206;-74
2022/12/08 14:28:42;;;;;;;16.17;9.40;;;5.90;99.90;;;;;;5116043;27;20738;-76
2022/12/08 14:31:28;;;;;;;14.43;9.45;;;6.00;99.90;;;;;;5113668;28;20253;-74